Hlavní strana
METAR-TAF:

METAR-TAF

Letiště :

Fort Good Hope, Severozápadní teritoria, Kanada

zeměpisná šířka: 66-16N, zeměpisná délka: 128-37W, výška: 60 m

Aktuální stav počasí

Zpráva byla vytvořena před 6 hodinami a 44 minutami, v 00:00 UTC
Východoseverovýchodní vítr 5 kt
Teplota -19°C
Vlhkost vzduchu 77%
Tlak 1004 hPa
Viditelnost: 16.1 km
Skoro jasno ve výšce 2000 ft
Skoro jasno ve výšce 6800 ft
Oblačno až skoro zataženo ve výšce 10000 ft
slabé sněžení

METAR: CYGH 150000Z 07005KT 10SM -SN FEW020 FEW068 BKN100 M19/M22 A2965 RMK CU1AC2AC5 CU TR TR/TR/29/SNOW COVER/MUCH LOOSE/LAST STFD OBS/ NEXT 151400Z SLP055

Čas: 23:44 (06:44 UTC)

Předpověď počasí

Zpráva byla vytvořena před 13 hodinami a 6 minutami, v 17:38 UTC
Předpověď platná od 14 v 18 UTC do 14 v 24 UTC
vítr z různých směrů 3 kt
Viditelnost: 10 km
Oblačno až skoro zataženo ve výšce 9000 ft

TAF: CYGH 141738Z 1418/1424 VRB03KT P6SM BKN090 RMK NXT FCST WILL BE ISSUED AT 151515Z

Stav a předpovědi počasí z více než 4 000 letišť (zprávy METAR a TAF).

Červené a žluté tečky na mapě představují dostupné meteorologické stanice.

Když kurzor umístíte na tečku, zobrazí se název stanice.

Pak kliknutím zobrazíte stav a předpověď počasí.

Chcete-li změnit mapu, kliknutím na zelené tlačítko se znaménkem +mapu přiblížíte, kliknutím na zelené tlačítko se znaménkem – mapu oddálíte a kliknutím na zelené šipky přejdete na sousední mapy.


METAR-TAF: